sensor_id;sensor_type;location;lat;lon;timestamp;pressure;altitude;pressure_sealevel;temperature;humidity
23433;BME280;41331;45.412;10.992;2024-03-06T00:00:45;100484.75;;;11.71;100.00
23433;BME280;41331;45.412;10.992;2024-03-06T00:03:13;100487.31;;;11.67;100.00
23433;BME280;41331;45.412;10.992;2024-03-06T00:05:40;100490.59;;;11.61;100.00
23433;BME280;41331;45.412;10.992;2024-03-06T00:08:08;100481.66;;;11.73;100.00
23433;BME280;41331;45.412;10.992;2024-03-06T00:10:36;100481.63;;;11.60;100.00
23433;BME280;41331;45.412;10.992;2024-03-06T00:13:04;100493.22;;;11.70;100.00
23433;BME280;41331;45.412;10.992;2024-03-06T00:15:32;100486.72;;;11.62;100.00
23433;BME280;41331;45.412;10.992;2024-03-06T00:18:00;100494.97;;;11.53;100.00
23433;BME280;41331;45.412;10.992;2024-03-06T00:20:29;100490.47;;;11.57;100.00
23433;BME280;41331;45.412;10.992;2024-03-06T00:22:57;100496.47;;;11.51;100.00
23433;BME280;41331;45.412;10.992;2024-03-06T00:25:26;100486.88;;;11.45;100.00
23433;BME280;41331;45.412;10.992;2024-03-06T00:27:54;100495.19;;;11.48;100.00
23433;BME280;41331;45.412;10.992;2024-03-06T00:30:22;100484.06;;;11.32;100.00
23433;BME280;41331;45.412;10.992;2024-03-06T00:32:53;100488.09;;;11.35;100.00
23433;BME280;41331;45.412;10.992;2024-03-06T00:35:21;100503.50;;;11.31;100.00
23433;BME280;41331;45.412;10.992;2024-03-06T00:37:51;100505.31;;;11.18;100.00
23433;BME280;41331;45.412;10.992;2024-03-06T00:40:19;100496.03;;;11.19;100.00
23433;BME280;41331;45.412;10.992;2024-03-06T00:42:47;100497.94;;;11.19;100.00
23433;BME280;41331;45.412;10.992;2024-03-06T00:45:15;100490.91;;;11.18;100.00
23433;BME280;41331;45.412;10.992;2024-03-06T00:47:43;100499.88;;;11.18;100.00
23433;BME280;41331;45.412;10.992;2024-03-06T00:50:10;100498.94;;;11.14;100.00
23433;BME280;41331;45.412;10.992;2024-03-06T00:52:39;100488.03;;;11.14;100.00
23433;BME280;41331;45.412;10.992;2024-03-06T00:55:07;100498.47;;;11.12;100.00
23433;BME280;41331;45.412;10.992;2024-03-06T00:57:35;100490.69;;;11.02;100.00
23433;BME280;41331;45.412;10.992;2024-03-06T01:00:03;100496.28;;;11.05;100.00
23433;BME280;41331;45.412;10.992;2024-03-06T01:02:38;100496.47;;;11.00;100.00
23433;BME280;41331;45.412;10.992;2024-03-06T01:05:06;100495.00;;;11.03;100.00
23433;BME280;41331;45.412;10.992;2024-03-06T01:07:37;100492.78;;;11.05;100.00
23433;BME280;41331;45.412;10.992;2024-03-06T01:10:06;100490.88;;;10.97;100.00
23433;BME280;41331;45.412;10.992;2024-03-06T01:12:35;100488.69;;;10.90;100.00
23433;BME280;41331;45.412;10.992;2024-03-06T01:15:03;100496.97;;;10.94;100.00
23433;BME280;41331;45.412;10.992;2024-03-06T01:17:31;100491.06;;;10.92;100.00
23433;BME280;41331;45.412;10.992;2024-03-06T01:19:59;100491.88;;;10.92;100.00
23433;BME280;41331;45.412;10.992;2024-03-06T01:22:28;100490.50;;;10.77;100.00
23433;BME280;41331;45.412;10.992;2024-03-06T01:24:55;100489.34;;;10.87;100.00
23433;BME280;41331;45.412;10.992;2024-03-06T01:27:23;100496.53;;;10.92;100.00
23433;BME280;41331;45.412;10.992;2024-03-06T01:29:51;100489.47;;;10.91;100.00
23433;BME280;41331;45.412;10.992;2024-03-06T01:32:19;100490.84;;;11.05;100.00
23433;BME280;41331;45.412;10.992;2024-03-06T01:34:47;100494.22;;;11.02;100.00
23433;BME280;41331;45.412;10.992;2024-03-06T01:37:14;100495.81;;;11.03;100.00
23433;BME280;41331;45.412;10.992;2024-03-06T01:39:43;100490.69;;;11.02;100.00
23433;BME280;41331;45.412;10.992;2024-03-06T01:42:11;100491.03;;;11.00;100.00
23433;BME280;41331;45.412;10.992;2024-03-06T01:44:39;100480.53;;;10.90;100.00
23433;BME280;41331;45.412;10.992;2024-03-06T01:47:07;100485.03;;;10.86;100.00
23433;BME280;41331;45.412;10.992;2024-03-06T01:49:35;100487.91;;;10.89;100.00
23433;BME280;41331;45.412;10.992;2024-03-06T01:52:13;100485.03;;;10.86;100.00
23433;BME280;41331;45.412;10.992;2024-03-06T01:54:43;100489.34;;;10.87;100.00
23433;BME280;41331;45.412;10.992;2024-03-06T01:57:13;100495.13;;;10.85;100.00
23433;BME280;41331;45.412;10.992;2024-03-06T01:59:43;100494.81;;;10.78;100.00
23433;BME280;41331;45.412;10.992;2024-03-06T02:02:11;100499.19;;;10.71;100.00
23433;BME280;41331;45.412;10.992;2024-03-06T02:04:39;100497.25;;;10.71;100.00
23433;BME280;41331;45.412;10.992;2024-03-06T02:07:08;100496.47;;;10.71;100.00
23433;BME280;41331;45.412;10.992;2024-03-06T02:09:38;100498.41;;;10.70;100.00
23433;BME280;41331;45.412;10.992;2024-03-06T02:12:06;100492.28;;;10.73;100.00
23433;BME280;41331;45.412;10.992;2024-03-06T02:14:37;100486.19;;;10.76;100.00
23433;BME280;41331;45.412;10.992;2024-03-06T02:17:05;100492.78;;;10.75;100.00
23433;BME280;41331;45.412;10.992;2024-03-06T02:19:42;100489.13;;;10.62;100.00
23433;BME280;41331;45.412;10.992;2024-03-06T02:22:11;100497.97;;;10.59;100.00
23433;BME280;41331;45.412;10.992;2024-03-06T02:24:45;100490.88;;;10.67;100.00
23433;BME280;41331;45.412;10.992;2024-03-06T02:27:13;100489.91;;;10.72;100.00
23433;BME280;41331;45.412;10.992;2024-03-06T02:29:41;100492.63;;;10.72;100.00
23433;BME280;41331;45.412;10.992;2024-03-06T02:32:09;100497.44;;;10.66;100.00
23433;BME280;41331;45.412;10.992;2024-03-06T02:34:40;100493.72;;;10.79;100.00
23433;BME280;41331;45.412;10.992;2024-03-06T02:37:08;100491.50;;;10.64;100.00
23433;BME280;41331;45.412;10.992;2024-03-06T02:39:37;100498.84;;;10.72;100.00
23433;BME280;41331;45.412;10.992;2024-03-06T02:42:05;100498.50;;;10.82;100.00
23433;BME280;41331;45.412;10.992;2024-03-06T02:44:34;100495.63;;;10.79;100.00
23433;BME280;41331;45.412;10.992;2024-03-06T02:47:03;100498.97;;;10.84;100.00
23433;BME280;41331;45.412;10.992;2024-03-06T02:49:30;100499.19;;;10.71;100.00
23433;BME280;41331;45.412;10.992;2024-03-06T02:51:58;100491.03;;;10.71;100.00
23433;BME280;41331;45.412;10.992;2024-03-06T02:54:28;100495.97;;;10.69;100.00
23433;BME280;41331;45.412;10.992;2024-03-06T02:56:56;100498.84;;;10.72;100.00
23433;BME280;41331;45.412;10.992;2024-03-06T02:59:24;100499.97;;;10.80;100.00
23433;BME280;41331;45.412;10.992;2024-03-06T03:01:52;100498.81;;;10.81;100.00
23433;BME280;41331;45.412;10.992;2024-03-06T03:04:20;100499.78;;;10.85;100.00
23433;BME280;41331;45.412;10.992;2024-03-06T03:06:48;100499.63;;;10.81;100.00
23433;BME280;41331;45.412;10.992;2024-03-06T03:09:15;100504.28;;;10.81;100.00
23433;BME280;41331;45.412;10.992;2024-03-06T03:11:43;100500.25;;;10.78;100.00
23433;BME280;41331;45.412;10.992;2024-03-06T03:14:12;100497.25;;;10.71;100.00
23433;BME280;41331;45.412;10.992;2024-03-06T03:16:39;100497.41;;;10.75;100.00
23433;BME280;41331;45.412;10.992;2024-03-06T03:19:09;100506.22;;;10.72;100.00
23433;BME280;41331;45.412;10.992;2024-03-06T03:21:37;100510.50;;;10.81;100.00
23433;BME280;41331;45.412;10.992;2024-03-06T03:24:05;100509.56;;;10.77;100.00
23433;BME280;41331;45.412;10.992;2024-03-06T03:26:32;100514.72;;;10.70;100.00
23433;BME280;41331;45.412;10.992;2024-03-06T03:29:00;100506.22;;;10.72;100.00
23433;BME280;41331;45.412;10.992;2024-03-06T03:31:28;100506.38;;;10.75;100.00
23433;BME280;41331;45.412;10.992;2024-03-06T03:33:56;100511.50;;;10.77;100.00
23433;BME280;41331;45.412;10.992;2024-03-06T03:36:24;100509.91;;;10.76;100.00
23433;BME280;41331;45.412;10.992;2024-03-06T03:38:52;100519.19;;;10.75;100.00
23433;BME280;41331;45.412;10.992;2024-03-06T03:41:20;100503.50;;;10.72;100.00
23433;BME280;41331;45.412;10.992;2024-03-06T03:43:48;100502.03;;;10.74;100.00
23433;BME280;41331;45.412;10.992;2024-03-06T03:46:16;100498.09;;;10.63;100.00
23433;BME280;41331;45.412;10.992;2024-03-06T03:48:44;100513.63;;;10.62;100.00
23433;BME280;41331;45.412;10.992;2024-03-06T03:51:12;100503.06;;;10.61;100.00
23433;BME280;41331;45.412;10.992;2024-03-06T03:53:40;100504.38;;;10.55;100.00
23433;BME280;41331;45.412;10.992;2024-03-06T03:56:07;100494.41;;;10.59;100.00
23433;BME280;41331;45.412;10.992;2024-03-06T03:58:36;100498.16;;;10.54;100.00
23433;BME280;41331;45.412;10.992;2024-03-06T04:01:04;100499.44;;;10.48;100.00
23433;BME280;41331;45.412;10.992;2024-03-06T04:03:32;100506.34;;;10.37;100.00
23433;BME280;41331;45.412;10.992;2024-03-06T04:06:00;100513.25;;;10.34;100.00
23433;BME280;41331;45.412;10.992;2024-03-06T04:08:28;100513.22;;;10.43;100.00
23433;BME280;41331;45.412;10.992;2024-03-06T04:10:56;100511.28;;;10.44;100.00
23433;BME280;41331;45.412;10.992;2024-03-06T04:13:24;100514.34;;;10.42;100.00
23433;BME280;41331;45.412;10.992;2024-03-06T04:15:51;100516.44;;;10.45;100.00
23433;BME280;41331;45.412;10.992;2024-03-06T04:18:19;100517.56;;;10.44;100.00
23433;BME280;41331;45.412;10.992;2024-03-06T04:20:47;100524.44;;;10.33;100.00
23433;BME280;41331;45.412;10.992;2024-03-06T04:23:15;100516.59;;;10.40;100.00
23433;BME280;41331;45.412;10.992;2024-03-06T04:25:43;100519.00;;;10.42;100.00
23433;BME280;41331;45.412;10.992;2024-03-06T04:28:12;100515.66;;;10.36;100.00
23433;BME280;41331;45.412;10.992;2024-03-06T04:30:40;100527.31;;;10.36;100.00
23433;BME280;41331;45.412;10.992;2024-03-06T04:33:08;100537.41;;;10.36;100.00
23433;BME280;41331;45.412;10.992;2024-03-06T04:35:36;100543.97;;;10.35;100.00
23433;BME280;41331;45.412;10.992;2024-03-06T04:38:04;100547.34;;;10.32;100.00
23433;BME280;41331;45.412;10.992;2024-03-06T04:40:34;100546.09;;;10.29;100.00
23433;BME280;41331;45.412;10.992;2024-03-06T04:43:02;100555.00;;;10.21;100.00
23433;BME280;41331;45.412;10.992;2024-03-06T04:45:29;100555.50;;;10.15;100.00
23433;BME280;41331;45.412;10.992;2024-03-06T04:47:57;100541.59;;;10.07;100.00
23433;BME280;41331;45.412;10.992;2024-03-06T04:50:25;100552.13;;;10.18;100.00
23433;BME280;41331;45.412;10.992;2024-03-06T04:52:54;100561.59;;;10.11;100.00
23433;BME280;41331;45.412;10.992;2024-03-06T04:55:23;100563.34;;;10.16;100.00
23433;BME280;41331;45.412;10.992;2024-03-06T04:57:52;100571.84;;;10.15;100.00
23433;BME280;41331;45.412;10.992;2024-03-06T05:00:21;100566.41;;;10.15;100.00
23433;BME280;41331;45.412;10.992;2024-03-06T05:02:49;100568.94;;;10.20;100.00
23433;BME280;41331;45.412;10.992;2024-03-06T05:05:34;100570.53;;;10.21;100.00
23433;BME280;41331;45.412;10.992;2024-03-06T05:08:19;100572.31;;;10.25;100.00
23433;BME280;41331;45.412;10.992;2024-03-06T05:11:05;100576.47;;;10.14;100.00
23433;BME280;41331;45.412;10.992;2024-03-06T05:13:51;100573.91;;;10.26;100.00
23433;BME280;41331;45.412;10.992;2024-03-06T05:16:36;100585.13;;;10.25;100.00
23433;BME280;41331;45.412;10.992;2024-03-06T05:19:21;100595.47;;;10.23;100.00
23433;BME280;41331;45.412;10.992;2024-03-06T05:22:06;100591.16;;;10.22;100.00
23433;BME280;41331;45.412;10.992;2024-03-06T05:24:51;100595.03;;;10.29;100.00
23433;BME280;41331;45.412;10.992;2024-03-06T05:27:37;100600.00;;;10.27;100.00
23433;BME280;41331;45.412;10.992;2024-03-06T05:30:22;100593.09;;;10.21;100.00
23433;BME280;41331;45.412;10.992;2024-03-06T05:33:06;100600.66;;;10.24;100.00
23433;BME280;41331;45.412;10.992;2024-03-06T05:35:51;100600.78;;;10.28;100.00
23433;BME280;41331;45.412;10.992;2024-03-06T05:38:36;100603.50;;;10.28;100.00
23433;BME280;41331;45.412;10.992;2024-03-06T05:41:21;100607.03;;;10.20;100.00
23433;BME280;41331;45.412;10.992;2024-03-06T05:44:07;100608.13;;;10.19;100.00
23433;BME280;41331;45.412;10.992;2024-03-06T05:46:52;100609.88;;;10.23;100.00
23433;BME280;41331;45.412;10.992;2024-03-06T05:49:37;100616.78;;;10.12;100.00
23433;BME280;41331;45.412;10.992;2024-03-06T05:52:22;100611.81;;;10.23;100.00
23433;BME280;41331;45.412;10.992;2024-03-06T05:55:07;100613.75;;;10.31;100.00
23433;BME280;41331;45.412;10.992;2024-03-06T05:57:52;100615.84;;;10.25;100.00
23433;BME280;41331;45.412;10.992;2024-03-06T06:00:35;100613.25;;;10.29;100.00
23433;BME280;41331;45.412;10.992;2024-03-06T06:03:03;100610.38;;;10.34;100.00
23433;BME280;41331;45.412;10.992;2024-03-06T06:05:30;100619.38;;;10.34;100.00
23433;BME280;41331;45.412;10.992;2024-03-06T06:07:58;100620.75;;;10.23;100.00
23433;BME280;41331;45.412;10.992;2024-03-06T06:10:26;100625.13;;;10.24;100.00
23433;BME280;41331;45.412;10.992;2024-03-06T06:12:54;100627.53;;;10.34;100.00
23433;BME280;41331;45.412;10.992;2024-03-06T06:15:21;100631.34;;;10.33;100.00
23433;BME280;41331;45.412;10.992;2024-03-06T06:17:50;100626.88;;;10.37;100.00
23433;BME280;41331;45.412;10.992;2024-03-06T06:20:18;100633.91;;;10.47;100.00
23433;BME280;41331;45.412;10.992;2024-03-06T06:22:46;100636.78;;;10.42;100.00
23433;BME280;41331;45.412;10.992;2024-03-06T06:25:14;100639.16;;;10.44;100.00
23433;BME280;41331;45.412;10.992;2024-03-06T06:27:43;100642.72;;;10.44;100.00
23433;BME280;41331;45.412;10.992;2024-03-06T06:30:12;100651.03;;;10.48;100.00
23433;BME280;41331;45.412;10.992;2024-03-06T06:32:41;100655.34;;;10.49;100.00
23433;BME280;41331;45.412;10.992;2024-03-06T06:35:10;100644.78;;;10.65;100.00
23433;BME280;41331;45.412;10.992;2024-03-06T06:37:39;100649.81;;;10.92;100.00
23433;BME280;41331;45.412;10.992;2024-03-06T06:40:08;100650.56;;;11.10;100.00
23433;BME280;41331;45.412;10.992;2024-03-06T06:42:36;100649.69;;;11.27;100.00
23433;BME280;41331;45.412;10.992;2024-03-06T06:45:04;100647.13;;;11.22;100.00
23433;BME280;41331;45.412;10.992;2024-03-06T06:47:37;100653.72;;;11.21;100.00
23433;BME280;41331;45.412;10.992;2024-03-06T06:50:07;100652.75;;;11.25;100.00
23433;BME280;41331;45.412;10.992;2024-03-06T06:52:39;100647.84;;;11.39;100.00
23433;BME280;41331;45.412;10.992;2024-03-06T06:55:07;100645.19;;;11.60;100.00
23433;BME280;41331;45.412;10.992;2024-03-06T06:57:39;100645.88;;;11.49;100.00
23433;BME280;41331;45.412;10.992;2024-03-06T07:00:07;100651.47;;;11.52;100.00
23433;BME280;41331;45.412;10.992;2024-03-06T07:02:42;100649.72;;;11.48;100.00
23433;BME280;41331;45.412;10.992;2024-03-06T07:05:10;100651.56;;;11.64;100.00
23433;BME280;41331;45.412;10.992;2024-03-06T07:07:39;100646.50;;;12.05;100.00
23433;BME280;41331;45.412;10.992;2024-03-06T07:10:07;100647.22;;;12.14;100.00
23433;BME280;41331;45.412;10.992;2024-03-06T07:12:36;100648.50;;;12.37;100.00
23433;BME280;41331;45.412;10.992;2024-03-06T07:15:04;100647.66;;;12.58;100.00
23433;BME280;41331;45.412;10.992;2024-03-06T07:17:32;100645.78;;;12.95;100.00
23433;BME280;41331;45.412;10.992;2024-03-06T07:20:01;100650.66;;;12.77;100.00
23433;BME280;41331;45.412;10.992;2024-03-06T07:22:28;100648.00;;;13.14;100.00
23433;BME280;41331;45.412;10.992;2024-03-06T07:24:56;100650.88;;;13.54;96.88
23433;BME280;41331;45.412;10.992;2024-03-06T07:27:24;100650.81;;;14.03;94.71
23433;BME280;41331;45.412;10.992;2024-03-06T07:29:53;100652.44;;;14.32;91.99
23433;BME280;41331;45.412;10.992;2024-03-06T07:32:21;100655.34;;;15.11;87.08
23433;BME280;41331;45.412;10.992;2024-03-06T07:34:49;100653.56;;;15.19;86.50
23433;BME280;41331;45.412;10.992;2024-03-06T07:37:17;100665.53;;;15.26;85.44
23433;BME280;41331;45.412;10.992;2024-03-06T07:39:45;100665.34;;;15.19;85.46
23433;BME280;41331;45.412;10.992;2024-03-06T07:42:15;100667.72;;;15.37;82.84
23433;BME280;41331;45.412;10.992;2024-03-06T07:44:43;100666.19;;;15.55;82.24
23433;BME280;41331;45.412;10.992;2024-03-06T07:47:11;100668.03;;;16.18;78.59
23433;BME280;41331;45.412;10.992;2024-03-06T07:49:39;100672.06;;;16.63;75.07
23433;BME280;41331;45.412;10.992;2024-03-06T07:52:07;100671.84;;;16.52;74.38
23433;BME280;41331;45.412;10.992;2024-03-06T07:54:36;100677.06;;;16.38;73.87
23433;BME280;41331;45.412;10.992;2024-03-06T07:57:04;100672.16;;;16.47;73.19
23433;BME280;41331;45.412;10.992;2024-03-06T07:59:32;100681.25;;;17.13;71.17
23433;BME280;41331;45.412;10.992;2024-03-06T08:01:59;100687.72;;;18.30;65.63
23433;BME280;41331;45.412;10.992;2024-03-06T08:04:30;100688.03;;;18.55;63.14
23433;BME280;41331;45.412;10.992;2024-03-06T08:06:58;100697.03;;;18.48;63.27
23433;BME280;41331;45.412;10.992;2024-03-06T08:09:26;100696.25;;;17.91;61.12
23433;BME280;41331;45.412;10.992;2024-03-06T08:11:56;100703.06;;;18.95;59.36
23433;BME280;41331;45.412;10.992;2024-03-06T08:14:24;100709.25;;;19.22;57.86
23433;BME280;41331;45.412;10.992;2024-03-06T08:16:53;100712.50;;;19.82;55.76
23433;BME280;41331;45.412;10.992;2024-03-06T08:19:21;100714.97;;;19.47;57.39
23433;BME280;41331;45.412;10.992;2024-03-06T08:21:52;100719.88;;;20.26;55.34
23433;BME280;41331;45.412;10.992;2024-03-06T08:24:20;100712.72;;;21.34;52.33
23433;BME280;41331;45.412;10.992;2024-03-06T08:26:47;100713.84;;;21.04;52.62
23433;BME280;41331;45.412;10.992;2024-03-06T08:29:16;100722.09;;;22.36;46.92
23433;BME280;41331;45.412;10.992;2024-03-06T08:31:44;100724.16;;;22.11;45.84
23433;BME280;41331;45.412;10.992;2024-03-06T08:34:12;100717.28;;;22.55;45.19
23433;BME280;41331;45.412;10.992;2024-03-06T08:36:40;100718.81;;;22.63;44.99
23433;BME280;41331;45.412;10.992;2024-03-06T08:39:08;100717.47;;;22.92;43.91
23433;BME280;41331;45.412;10.992;2024-03-06T08:41:40;100715.81;;;24.02;41.91
23433;BME280;41331;45.412;10.992;2024-03-06T08:44:07;100726.56;;;21.37;46.59
23433;BME280;41331;45.412;10.992;2024-03-06T08:46:35;100730.53;;;21.40;46.21
23433;BME280;41331;45.412;10.992;2024-03-06T08:49:03;100723.34;;;22.10;45.42
23433;BME280;41331;45.412;10.992;2024-03-06T08:51:35;100734.78;;;22.23;43.81
23433;BME280;41331;45.412;10.992;2024-03-06T08:54:03;100747.53;;;21.70;44.40
23433;BME280;41331;45.412;10.992;2024-03-06T08:56:31;100745.50;;;22.10;44.65
23433;BME280;41331;45.412;10.992;2024-03-06T08:59:00;100743.53;;;21.96;44.10
23433;BME280;41331;45.412;10.992;2024-03-06T09:01:30;100742.81;;;22.98;42.80
23433;BME280;41331;45.412;10.992;2024-03-06T09:03:58;100750.88;;;22.67;42.52
23433;BME280;41331;45.412;10.992;2024-03-06T09:06:25;100750.63;;;22.26;45.31
23433;BME280;41331;45.412;10.992;2024-03-06T09:08:54;100755.53;;;22.95;42.40
23433;BME280;41331;45.412;10.992;2024-03-06T09:11:22;100766.44;;;21.11;44.72
23433;BME280;41331;45.412;10.992;2024-03-06T09:13:50;100757.59;;;22.73;43.10
23433;BME280;41331;45.412;10.992;2024-03-06T09:16:18;100766.53;;;21.86;44.27
23433;BME280;41331;45.412;10.992;2024-03-06T09:18:45;100764.53;;;22.19;43.87
23433;BME280;41331;45.412;10.992;2024-03-06T09:21:13;100759.59;;;23.39;41.60
23433;BME280;41331;45.412;10.992;2024-03-06T09:23:41;100769.06;;;24.39;39.58
23433;BME280;41331;45.412;10.992;2024-03-06T09:26:09;100764.19;;;23.64;40.83
23433;BME280;41331;45.412;10.992;2024-03-06T09:28:39;100767.94;;;22.66;42.73
23433;BME280;41331;45.412;10.992;2024-03-06T09:31:07;100776.31;;;22.55;44.12
23433;BME280;41331;45.412;10.992;2024-03-06T09:33:34;100765.44;;;23.00;44.21
23433;BME280;41331;45.412;10.992;2024-03-06T09:36:03;100773.25;;;21.50;45.39
23433;BME280;41331;45.412;10.992;2024-03-06T09:38:30;100777.13;;;21.27;45.40
23433;BME280;41331;45.412;10.992;2024-03-06T09:40:58;100784.72;;;22.12;45.17
23433;BME280;41331;45.412;10.992;2024-03-06T09:43:26;100774.72;;;22.54;44.99
23433;BME280;41331;45.412;10.992;2024-03-06T09:45:58;100769.28;;;21.68;44.73
23433;BME280;41331;45.412;10.992;2024-03-06T09:48:26;100777.41;;;20.83;48.36
23433;BME280;41331;45.412;10.992;2024-03-06T09:51:00;100783.06;;;18.08;55.36
23433;BME280;41331;45.412;10.992;2024-03-06T09:53:28;100774.94;;;18.75;56.58
23433;BME280;41331;45.412;10.992;2024-03-06T09:55:56;100772.28;;;20.12;53.34
23433;BME280;41331;45.412;10.992;2024-03-06T09:58:25;100764.94;;;21.57;47.85
23433;BME280;41331;45.412;10.992;2024-03-06T10:00:54;100772.72;;;20.98;47.93
23433;BME280;41331;45.412;10.992;2024-03-06T10:03:23;100774.66;;;20.10;48.62
23433;BME280;41331;45.412;10.992;2024-03-06T10:05:50;100776.66;;;19.61;51.43
23433;BME280;41331;45.412;10.992;2024-03-06T10:08:20;100791.81;;;19.82;50.85
23433;BME280;41331;45.412;10.992;2024-03-06T10:10:51;100779.84;;;18.89;54.31
23433;BME280;41331;45.412;10.992;2024-03-06T10:13:23;100788.91;;;17.15;60.81
23433;BME280;41331;45.412;10.992;2024-03-06T10:15:59;100776.81;;;18.37;58.61
23433;BME280;41331;45.412;10.992;2024-03-06T10:18:29;100784.38;;;17.45;61.52
23433;BME280;41331;45.412;10.992;2024-03-06T10:20:58;100781.03;;;18.31;58.63
23433;BME280;41331;45.412;10.992;2024-03-06T10:23:29;100780.25;;;18.04;60.00
23433;BME280;41331;45.412;10.992;2024-03-06T10:25:57;100768.44;;;18.60;56.45
23433;BME280;41331;45.412;10.992;2024-03-06T10:28:25;100790.09;;;16.75;61.61
23433;BME280;41331;45.412;10.992;2024-03-06T10:31:03;100794.88;;;15.76;65.35
23433;BME280;41331;45.412;10.992;2024-03-06T10:33:32;100793.44;;;16.14;67.95
23433;BME280;41331;45.412;10.992;2024-03-06T10:36:03;100786.19;;;16.41;64.39
23433;BME280;41331;45.412;10.992;2024-03-06T10:38:35;100783.38;;;17.57;61.34
23433;BME280;41331;45.412;10.992;2024-03-06T10:41:06;100782.00;;;19.06;57.85
23433;BME280;41331;45.412;10.992;2024-03-06T10:43:36;100781.69;;;18.78;54.19
23433;BME280;41331;45.412;10.992;2024-03-06T10:46:06;100794.63;;;19.07;53.76
23433;BME280;41331;45.412;10.992;2024-03-06T10:48:37;100786.00;;;18.49;52.84
23433;BME280;41331;45.412;10.992;2024-03-06T10:51:07;100781.91;;;18.09;54.26
23433;BME280;41331;45.412;10.992;2024-03-06T10:53:36;100780.97;;;17.75;57.27
23433;BME280;41331;45.412;10.992;2024-03-06T10:56:08;100779.88;;;18.06;58.45
23433;BME280;41331;45.412;10.992;2024-03-06T10:58:38;100788.34;;;17.94;57.26
23433;BME280;41331;45.412;10.992;2024-03-06T11:01:07;100793.72;;;17.86;57.35
23433;BME280;41331;45.412;10.992;2024-03-06T11:03:36;100791.22;;;18.27;57.54
23433;BME280;41331;45.412;10.992;2024-03-06T11:06:05;100774.69;;;18.01;57.33
23433;BME280;41331;45.412;10.992;2024-03-06T11:08:35;100778.72;;;17.15;60.18
23433;BME280;41331;45.412;10.992;2024-03-06T11:11:22;100773.97;;;17.35;60.07
23433;BME280;41331;45.412;10.992;2024-03-06T11:14:01;100771.22;;;17.58;59.78
23433;BME280;41331;45.412;10.992;2024-03-06T11:16:31;100765.88;;;18.45;57.91
23433;BME280;41331;45.412;10.992;2024-03-06T11:19:08;100756.88;;;18.21;56.50
23433;BME280;41331;45.412;10.992;2024-03-06T11:21:45;100769.59;;;18.29;59.04
23433;BME280;41331;45.412;10.992;2024-03-06T11:26:56;100776.34;;;17.37;60.48
23433;BME280;41331;45.412;10.992;2024-03-06T11:29:32;100768.34;;;17.28;60.95
23433;BME280;41331;45.412;10.992;2024-03-06T11:32:17;100781.75;;;17.10;64.51
23433;BME280;41331;45.412;10.992;2024-03-06T11:34:45;100778.41;;;17.20;64.18
23433;BME280;41331;45.412;10.992;2024-03-06T11:37:13;100779.13;;;16.40;66.00
23433;BME280;41331;45.412;10.992;2024-03-06T11:39:48;100761.38;;;16.92;67.08
23433;BME280;41331;45.412;10.992;2024-03-06T11:42:15;100769.59;;;17.53;64.98
23433;BME280;41331;45.412;10.992;2024-03-06T11:44:53;100780.47;;;16.85;64.10
23433;BME280;41331;45.412;10.992;2024-03-06T11:47:25;100776.69;;;16.54;64.42
23433;BME280;41331;45.412;10.992;2024-03-06T11:49:53;100772.19;;;16.65;64.51
23433;BME280;41331;45.412;10.992;2024-03-06T11:52:22;100768.19;;;16.24;64.48
23433;BME280;41331;45.412;10.992;2024-03-06T11:54:51;100771.75;;;16.09;64.90
23433;BME280;41331;45.412;10.992;2024-03-06T11:57:20;100769.38;;;15.91;65.32
23433;BME280;41331;45.412;10.992;2024-03-06T11:59:49;100769.06;;;15.77;65.32
23433;BME280;41331;45.412;10.992;2024-03-06T12:02:17;100761.66;;;16.13;63.80
23433;BME280;41331;45.412;10.992;2024-03-06T12:04:45;100752.78;;;16.19;62.51
23433;BME280;41331;45.412;10.992;2024-03-06T12:07:13;100758.63;;;16.53;61.71
23433;BME280;41331;45.412;10.992;2024-03-06T12:09:41;100747.66;;;16.72;60.82
23433;BME280;41331;45.412;10.992;2024-03-06T12:12:10;100755.69;;;16.46;61.20
23433;BME280;41331;45.412;10.992;2024-03-06T12:14:40;100762.53;;;16.17;62.28
23433;BME280;41331;45.412;10.992;2024-03-06T12:17:12;100759.19;;;16.43;60.18
23433;BME280;41331;45.412;10.992;2024-03-06T12:19:43;100743.25;;;16.87;58.83
23433;BME280;41331;45.412;10.992;2024-03-06T12:22:14;100748.44;;;16.92;57.80
23433;BME280;41331;45.412;10.992;2024-03-06T12:24:43;100745.94;;;16.29;58.65
23433;BME280;41331;45.412;10.992;2024-03-06T12:27:11;100738.25;;;16.93;56.86
23433;BME280;41331;45.412;10.992;2024-03-06T12:29:40;100743.00;;;16.96;57.13
23433;BME280;41331;45.412;10.992;2024-03-06T12:32:17;100731.47;;;17.55;56.10
23433;BME280;41331;45.412;10.992;2024-03-06T12:34:58;100726.47;;;17.38;54.90
23433;BME280;41331;45.412;10.992;2024-03-06T12:37:31;100733.38;;;18.27;55.05
23433;BME280;41331;45.412;10.992;2024-03-06T12:40:01;100734.50;;;17.96;53.16
23433;BME280;41331;45.412;10.992;2024-03-06T12:42:32;100729.03;;;18.00;54.54
23433;BME280;41331;45.412;10.992;2024-03-06T12:45:00;100733.00;;;17.76;56.26
23433;BME280;41331;45.412;10.992;2024-03-06T12:47:29;100740.16;;;18.07;56.08
23433;BME280;41331;45.412;10.992;2024-03-06T12:49:57;100740.16;;;17.57;55.93
23433;BME280;41331;45.412;10.992;2024-03-06T12:52:25;100739.03;;;16.74;56.37